Koushin Maru No.1 — JD3804 — position and weather

sailwx.info

Track history (hours):
 
Tides and Currents Weather Stations Pressure Air Temp Water Temp Dewpoint Dewpoint Depression Visibility Wind Speed Wind Dir Waves Ship Positions

Koushin Maru No.1

Last reported at 2018-Jun-22 00:26 UTC. Time now 2018-Jun-25 05:53 UTC.
Position N 35°08' E 139°43'.

Length 75 m; draft 4.8 m.

Type: Cargo ship. MMSI: 431006022.

Date/timePositionNaut miles runAvg speedWind from/ knotsBaromVisibWave heightAir tempDewpointWater temp
2018-Jun-22 00:26N 35°08' E 139°43'612.7
2018-Jun-21 23:58N 35°13' E 139°46'611.9
2018-Jun-21 23:30N 35°18' E 139°44'611.5
2018-Jun-21 23:00N 35°23' E 139°43'4 8.8
2018-Jun-21 22:30N 35°24' E 139°48'  
2018-Jun-19 02:02N 35°22' E 139°54'1 5.8
2018-Jun-19 01:56N 35°22' E 139°53'0 0.1
2018-Jun-19 00:56N 35°22' E 139°53'0 0.0
2018-Jun-19 00:20N 35°22' E 139°53'0 0.0
2018-Jun-18 23:50N 35°22' E 139°53'0 0.0
2018-Jun-18 23:26N 35°22' E 139°53'0 0.0
2018-Jun-18 22:56N 35°22' E 139°53'0 0.0
2018-Jun-18 22:29N 35°22' E 139°53'0 0.0
2018-Jun-18 22:00N 35°22' E 139°53'0 0.0
2018-Jun-18 21:30N 35°22' E 139°53'0 0.0
2018-Jun-18 20:51N 35°22' E 139°53'0 0.0
2018-Jun-18 20:29N 35°22' E 139°53'0 0.0
2018-Jun-18 19:56N 35°22' E 139°53'0 0.0
2018-Jun-18 19:24N 35°22' E 139°53'0 0.0
2018-Jun-18 18:58N 35°22' E 139°53'0 0.0
2018-Jun-18 18:26N 35°22' E 139°53'0 0.0
2018-Jun-18 17:59N 35°22' E 139°53'0 0.0
2018-Jun-18 17:30N 35°22' E 139°53'0 0.0
2018-Jun-18 17:00N 35°22' E 139°53'0 0.0
2018-Jun-18 16:30N 35°22' E 139°53'0 0.0
2018-Jun-18 16:00N 35°22' E 139°53'0 0.0
2018-Jun-18 15:30N 35°22' E 139°53'0 0.0
2018-Jun-18 15:00N 35°22' E 139°53'0 0.0
2018-Jun-18 14:29N 35°22' E 139°53'0 0.1
2018-Jun-18 13:41N 35°22' E 139°53'0 0.1
2018-Jun-18 12:49N 35°22' E 139°53'0 0.0
2018-Jun-18 12:29N 35°22' E 139°53'0 0.0
2018-Jun-18 10:59N 35°22' E 139°53'0 0.0
2018-Jun-18 10:27N 35°22' E 139°53'0 0.0
2018-Jun-18 10:00N 35°22' E 139°53'0 0.0
2018-Jun-18 09:27N 35°22' E 139°53'0 0.0
2018-Jun-18 09:00N 35°22' E 139°53'0 0.0
2018-Jun-18 08:29N 35°22' E 139°53'0 0.0
2018-Jun-18 07:57N 35°22' E 139°53'0 0.0
2018-Jun-18 07:28N 35°22' E 139°53'0 0.0
2018-Jun-18 06:36N 35°22' E 139°53'0 0.1
2018-Jun-18 05:07N 35°22' E 139°53'0 0.0
2018-Jun-18 04:53N 35°22' E 139°53'0 0.0
2018-Jun-18 04:30N 35°22' E 139°53'1 1.8
2018-Jun-18 03:58N 35°22' E 139°52'612.8
2018-Jun-18 03:30N 35°28' E 139°50'8 0.4
2018-Jun-17 04:01N 35°35' E 139°56'312.9
2018-Jun-17 03:46N 35°32' E 139°54'412.4
2018-Jun-17 03:28N 35°29' E 139°52'612.3
2018-Jun-17 03:00N 35°25' E 139°47'611.9
2018-Jun-17 02:30N 35°20' E 139°44'611.1
2018-Jun-17 02:00N 35°14' E 139°47'611.0
2018-Jun-17 01:30N 35°09' E 139°45'24510.8
2018-Jun-16 02:50N 33°52' E 135°03'513.8
2018-Jun-16 02:31N 33°55' E 134°59'713.1
2018-Jun-16 02:00N 33°60' E 134°54'1012.9
2018-Jun-16 01:16N 34°07' E 134°46'512.8
2018-Jun-16 00:50N 34°11' E 134°42'9 3.0
2018-Jun-15 21:49N 34°16' E 134°33'311.2
2018-Jun-15 21:30N 34°18' E 134°29'612.0
2018-Jun-15 21:00N 34°21' E 134°23'  
2018-Jun-13 02:50N 34°26' E 134°21'412.2
2018-Jun-13 02:30N 34°27' E 134°26'612.3
2018-Jun-13 02:00N 34°29' E 134°33'612.6
2018-Jun-13 01:30N 34°32' E 134°40'813.0
2018-Jun-13 00:55N 34°34' E 134°49'1113.0
2018-Jun-13 00:06N 34°37' E 135°01'113.5
2018-Jun-13 00:00N 34°37' E 135°02'510.8
2018-Jun-12 23:30N 34°31' E 135°05'612.9
2018-Jun-12 23:01N 34°25' E 135°03'612.8
2018-Jun-12 22:30N 34°19' E 135°00'5 9.9
2018-Jun-12 22:01N 34°15' E 135°03'4 7.3
2018-Jun-12 21:31N 34°15' E 135°07'0 0.1
2018-Jun-12 21:00N 34°15' E 135°07'0 0.0
2018-Jun-12 20:27N 34°15' E 135°07'0 0.0
2018-Jun-12 20:00N 34°15' E 135°07'0 0.0
2018-Jun-12 19:30N 34°15' E 135°07'0 0.0
2018-Jun-12 19:00N 34°15' E 135°07'0 0.0
2018-Jun-12 18:30N 34°15' E 135°07'0 0.0
2018-Jun-12 18:00N 34°15' E 135°07'0 0.0
2018-Jun-12 17:24N 34°15' E 135°07'0 0.0
2018-Jun-12 16:57N 34°15' E 135°07'0 0.0
2018-Jun-12 16:27N 34°15' E 135°07'0 0.0
2018-Jun-12 15:57N 34°15' E 135°07'0 0.0
2018-Jun-12 15:30N 34°15' E 135°07'0 0.0
2018-Jun-12 14:57N 34°15' E 135°07'0 0.0
2018-Jun-12 13:48N 34°15' E 135°07'0 0.0
2018-Jun-12 13:27N 34°15' E 135°07'0 0.0
2018-Jun-12 13:00N 34°15' E 135°07'0 0.0
2018-Jun-12 12:27N 34°15' E 135°07'0 0.0
2018-Jun-12 12:00N 34°15' E 135°07'0 0.0
2018-Jun-12 11:30N 34°15' E 135°07'0 0.0
2018-Jun-12 11:00N 34°15' E 135°07'0 0.0
2018-Jun-12 10:30N 34°15' E 135°07'0 0.0
2018-Jun-12 10:00N 34°15' E 135°07'0 0.0
2018-Jun-12 09:30N 34°15' E 135°07'1 2.8
2018-Jun-12 09:00N 34°15' E 135°05'4 8.3
2018-Jun-12 08:31N 34°19' E 135°04'612.4
2018-Jun-12 08:00N 34°24' E 135°09'713.1
2018-Jun-12 07:31N 34°28' E 135°14'712.8
2018-Jun-12 06:59N 34°33' E 135°20'510.3
2018-Jun-12 06:29N 34°35' E 135°26'  
Track history (hours):
 
Tides and Currents Weather Stations Pressure Air Temp Water Temp Dewpoint Dewpoint Depression Visibility Wind Speed Wind Dir Waves Ship Positions

Koushin Maru No.1

Last reported at 2018-Jun-22 00:26 UTC. Time now 2018-Jun-25 05:53 UTC.
Position N 35°08' E 139°43'.

Length 75 m; draft 4.8 m.

Type: Cargo ship. MMSI: 431006022.

Date/timePositionNaut miles runAvg speedWind from/ knotsBaromVisibWave heightAir tempDewpointWater temp
2018-Jun-22 00:26N 35°08' E 139°43'612.7
2018-Jun-21 23:58N 35°13' E 139°46'611.9
2018-Jun-21 23:30N 35°18' E 139°44'611.5
2018-Jun-21 23:00N 35°23' E 139°43'4 8.8
2018-Jun-21 22:30N 35°24' E 139°48'  
2018-Jun-19 02:02N 35°22' E 139°54'1 5.8
2018-Jun-19 01:56N 35°22' E 139°53'0 0.1
2018-Jun-19 00:56N 35°22' E 139°53'0 0.0
2018-Jun-19 00:20N 35°22' E 139°53'0 0.0
2018-Jun-18 23:50N 35°22' E 139°53'0 0.0
2018-Jun-18 23:26N 35°22' E 139°53'0 0.0
2018-Jun-18 22:56N 35°22' E 139°53'0 0.0
2018-Jun-18 22:29N 35°22' E 139°53'0 0.0
2018-Jun-18 22:00N 35°22' E 139°53'0 0.0
2018-Jun-18 21:30N 35°22' E 139°53'0 0.0
2018-Jun-18 20:51N 35°22' E 139°53'0 0.0
2018-Jun-18 20:29N 35°22' E 139°53'0 0.0
2018-Jun-18 19:56N 35°22' E 139°53'0 0.0
2018-Jun-18 19:24N 35°22' E 139°53'0 0.0
2018-Jun-18 18:58N 35°22' E 139°53'0 0.0
2018-Jun-18 18:26N 35°22' E 139°53'0 0.0
2018-Jun-18 17:59N 35°22' E 139°53'0 0.0
2018-Jun-18 17:30N 35°22' E 139°53'0 0.0
2018-Jun-18 17:00N 35°22' E 139°53'0 0.0
2018-Jun-18 16:30N 35°22' E 139°53'0 0.0
2018-Jun-18 16:00N 35°22' E 139°53'0 0.0
2018-Jun-18 15:30N 35°22' E 139°53'0 0.0
2018-Jun-18 15:00N 35°22' E 139°53'0 0.0
2018-Jun-18 14:29N 35°22' E 139°53'0 0.1
2018-Jun-18 13:41N 35°22' E 139°53'0 0.1
2018-Jun-18 12:49N 35°22' E 139°53'0 0.0
2018-Jun-18 12:29N 35°22' E 139°53'0 0.0
2018-Jun-18 10:59N 35°22' E 139°53'0 0.0
2018-Jun-18 10:27N 35°22' E 139°53'0 0.0
2018-Jun-18 10:00N 35°22' E 139°53'0 0.0
2018-Jun-18 09:27N 35°22' E 139°53'0 0.0
2018-Jun-18 09:00N 35°22' E 139°53'0 0.0
2018-Jun-18 08:29N 35°22' E 139°53'0 0.0
2018-Jun-18 07:57N 35°22' E 139°53'0 0.0
2018-Jun-18 07:28N 35°22' E 139°53'0 0.0
2018-Jun-18 06:36N 35°22' E 139°53'0 0.1
2018-Jun-18 05:07N 35°22' E 139°53'0 0.0
2018-Jun-18 04:53N 35°22' E 139°53'0 0.0
2018-Jun-18 04:30N 35°22' E 139°53'1 1.8
2018-Jun-18 03:58N 35°22' E 139°52'612.8
2018-Jun-18 03:30N 35°28' E 139°50'8 0.4
2018-Jun-17 04:01N 35°35' E 139°56'312.9
2018-Jun-17 03:46N 35°32' E 139°54'412.4
2018-Jun-17 03:28N 35°29' E 139°52'612.3
2018-Jun-17 03:00N 35°25' E 139°47'611.9
2018-Jun-17 02:30N 35°20' E 139°44'611.1
2018-Jun-17 02:00N 35°14' E 139°47'611.0
2018-Jun-17 01:30N 35°09' E 139°45'24510.8
2018-Jun-16 02:50N 33°52' E 135°03'513.8
2018-Jun-16 02:31N 33°55' E 134°59'713.1
2018-Jun-16 02:00N 33°60' E 134°54'1012.9
2018-Jun-16 01:16N 34°07' E 134°46'512.8
2018-Jun-16 00:50N 34°11' E 134°42'9 3.0
2018-Jun-15 21:49N 34°16' E 134°33'311.2
2018-Jun-15 21:30N 34°18' E 134°29'612.0
2018-Jun-15 21:00N 34°21' E 134°23'  
2018-Jun-13 02:50N 34°26' E 134°21'412.2
2018-Jun-13 02:30N 34°27' E 134°26'612.3
2018-Jun-13 02:00N 34°29' E 134°33'612.6
2018-Jun-13 01:30N 34°32' E 134°40'813.0
2018-Jun-13 00:55N 34°34' E 134°49'1113.0
2018-Jun-13 00:06N 34°37' E 135°01'113.5
2018-Jun-13 00:00N 34°37' E 135°02'510.8
2018-Jun-12 23:30N 34°31' E 135°05'612.9
2018-Jun-12 23:01N 34°25' E 135°03'612.8
2018-Jun-12 22:30N 34°19' E 135°00'5 9.9
2018-Jun-12 22:01N 34°15' E 135°03'4 7.3
2018-Jun-12 21:31N 34°15' E 135°07'0 0.1
2018-Jun-12 21:00N 34°15' E 135°07'0 0.0
2018-Jun-12 20:27N 34°15' E 135°07'0 0.0
2018-Jun-12 20:00N 34°15' E 135°07'0 0.0
2018-Jun-12 19:30N 34°15' E 135°07'0 0.0
2018-Jun-12 19:00N 34°15' E 135°07'0 0.0
2018-Jun-12 18:30N 34°15' E 135°07'0 0.0
2018-Jun-12 18:00N 34°15' E 135°07'0 0.0
2018-Jun-12 17:24N 34°15' E 135°07'0 0.0
2018-Jun-12 16:57N 34°15' E 135°07'0 0.0
2018-Jun-12 16:27N 34°15' E 135°07'0 0.0
2018-Jun-12 15:57N 34°15' E 135°07'0 0.0
2018-Jun-12 15:30N 34°15' E 135°07'0 0.0
2018-Jun-12 14:57N 34°15' E 135°07'0 0.0
2018-Jun-12 13:48N 34°15' E 135°07'0 0.0
2018-Jun-12 13:27N 34°15' E 135°07'0 0.0
2018-Jun-12 13:00N 34°15' E 135°07'0 0.0
2018-Jun-12 12:27N 34°15' E 135°07'0 0.0
2018-Jun-12 12:00N 34°15' E 135°07'0 0.0
2018-Jun-12 11:30N 34°15' E 135°07'0 0.0
2018-Jun-12 11:00N 34°15' E 135°07'0 0.0
2018-Jun-12 10:30N 34°15' E 135°07'0 0.0
2018-Jun-12 10:00N 34°15' E 135°07'0 0.0
2018-Jun-12 09:30N 34°15' E 135°07'1 2.8
2018-Jun-12 09:00N 34°15' E 135°05'4 8.3
2018-Jun-12 08:31N 34°19' E 135°04'612.4
2018-Jun-12 08:00N 34°24' E 135°09'713.1
2018-Jun-12 07:31N 34°28' E 135°14'712.8
2018-Jun-12 06:59N 34°33' E 135°20'510.3
2018-Jun-12 06:29N 34°35' E 135°26'  

Dump ship's entire track history